Time;durP1;ratioP1;P1;durP2;ratioP2;P2;SDS_P1;SDS_P2;PMS_P1;PMS_P2;Temp;Humidity;BMP_temperature;BMP_pressure;BME280_temperature;BME280_humidity;BME280_pressure;Samples;Min_cycle;Max_cycle;Signal;HPM_P1;HPM_P2
2021/11/15 00:00:43;;;;;;;0.50;0.50;;;;;;;;;;5011918;28;20173;-64
2021/11/15 00:03:09;;;;;;;0.50;0.50;;;;;;;;;;4992267;28;20597;-65
2021/11/15 00:05:35;;;;;;;0.40;0.40;;;;;;;;;;4992622;28;20228;-64
2021/11/15 00:08:01;;;;;;;0.40;0.40;;;;;;;;;;4992518;28;20589;-64
2021/11/15 00:10:27;;;;;;;0.40;0.40;;;;;;;;;;4991829;28;20425;-65
2021/11/15 00:12:53;;;;;;;0.50;0.50;;;;;;;;;;4992192;28;20488;-65
2021/11/15 00:15:20;;;;;;;0.40;0.40;;;;;;;;;;4992290;28;20601;-65
2021/11/15 00:17:46;;;;;;;0.40;0.40;;;;;;;;;;4992138;28;20240;-65
2021/11/15 00:20:12;;;;;;;0.40;0.40;;;;;;;;;;4991869;28;20182;-65
2021/11/15 00:22:38;;;;;;;0.40;0.40;;;;;;;;;;4992228;28;20266;-64
2021/11/15 00:25:05;;;;;;;0.40;0.40;;;;;;;;;;4992245;28;20266;-64
2021/11/15 00:27:31;;;;;;;0.50;0.50;;;;;;;;;;4992162;28;20170;-64
2021/11/15 00:30:00;;;;;;;0.40;0.40;;;;;;;;;;4992053;28;20189;-64
2021/11/15 00:32:26;;;;;;;0.50;0.50;;;;;;;;;;4993065;28;20501;-64
2021/11/15 00:34:52;;;;;;;0.40;0.40;;;;;;;;;;4995867;28;20240;-65
2021/11/15 00:37:18;;;;;;;0.40;0.40;;;;;;;;;;4995936;28;20641;-65
2021/11/15 00:39:44;;;;;;;0.40;0.40;;;;;;;;;;4996036;28;20174;-64
2021/11/15 00:42:10;;;;;;;0.40;0.40;;;;;;;;;;4995569;28;20429;-65
2021/11/15 00:44:36;;;;;;;0.40;0.40;;;;;;;;;;4995333;28;20264;-65
2021/11/15 00:47:03;;;;;;;0.40;0.40;;;;;;;;;;4996355;28;20412;-65
2021/11/15 00:49:29;;;;;;;0.40;0.40;;;;;;;;;;4995739;28;20173;-65
2021/11/15 00:51:55;;;;;;;0.40;0.40;;;;;;;;;;4995269;28;20214;-65
2021/11/15 00:54:21;;;;;;;0.40;0.40;;;;;;;;;;4995502;28;20917;-65
2021/11/15 00:56:47;;;;;;;0.40;0.40;;;;;;;;;;4995535;28;20932;-65
2021/11/15 00:59:13;;;;;;;0.40;0.40;;;;;;;;;;4995536;28;20413;-64
2021/11/15 01:01:39;;;;;;;0.40;0.40;;;;;;;;;;4994642;28;20456;-64
2021/11/15 01:04:05;;;;;;;0.40;0.40;;;;;;;;;;4994858;28;20233;-64
2021/11/15 01:06:31;;;;;;;0.50;0.50;;;;;;;;;;4995440;28;20174;-63
2021/11/15 01:08:57;;;;;;;0.40;0.40;;;;;;;;;;4995200;28;20613;-66
2021/11/15 01:11:23;;;;;;;0.50;0.50;;;;;;;;;;4995011;28;20496;-64
2021/11/15 01:13:49;;;;;;;0.40;0.40;;;;;;;;;;4994197;28;20829;-64
2021/11/15 01:16:15;;;;;;;0.40;0.40;;;;;;;;;;4995084;28;20224;-64
2021/11/15 01:18:43;;;;;;;0.40;0.40;;;;;;;;;;4995172;28;20605;-65
2021/11/15 01:21:10;;;;;;;0.40;0.40;;;;;;;;;;4995069;28;20197;-65
2021/11/15 01:23:36;;;;;;;0.40;0.40;;;;;;;;;;4994494;28;20213;-64
2021/11/15 01:26:03;;;;;;;0.50;0.50;;;;;;;;;;4995139;28;20665;-65
2021/11/15 01:28:29;;;;;;;0.43;0.43;;;;;;;;;;4995027;28;20228;-65
2021/11/15 01:30:55;;;;;;;0.40;0.40;;;;;;;;;;4994012;28;20186;-64
2021/11/15 01:33:21;;;;;;;0.50;0.50;;;;;;;;;;4994481;28;20465;-64
2021/11/15 01:35:47;;;;;;;0.40;0.40;;;;;;;;;;4994568;28;21039;-65
2021/11/15 01:38:13;;;;;;;0.50;0.50;;;;;;;;;;4994730;28;20405;-64
2021/11/15 01:40:39;;;;;;;0.50;0.50;;;;;;;;;;4994511;28;20188;-64
2021/11/15 01:43:05;;;;;;;0.50;0.50;;;;;;;;;;4993996;28;20468;-64
2021/11/15 01:45:33;;;;;;;0.40;0.40;;;;;;;;;;4993915;28;20503;-64
2021/11/15 01:48:01;;;;;;;0.40;0.40;;;;;;;;;;4994130;28;20590;-64
2021/11/15 01:50:27;;;;;;;0.50;0.50;;;;;;;;;;4994593;28;20179;-64
2021/11/15 01:52:54;;;;;;;0.40;0.40;;;;;;;;;;4994349;28;20206;-65
2021/11/15 01:55:21;;;;;;;0.50;0.50;;;;;;;;;;4992827;28;20549;-64
2021/11/15 01:57:48;;;;;;;0.40;0.40;;;;;;;;;;4994321;28;20209;-64
2021/11/15 02:00:16;;;;;;;0.50;0.50;;;;;;;;;;4994533;28;20205;-62
2021/11/15 02:02:42;;;;;;;0.50;0.50;;;;;;;;;;4994101;28;20249;-62
2021/11/15 02:05:08;;;;;;;0.40;0.40;;;;;;;;;;4994306;28;20253;-65
2021/11/15 02:07:34;;;;;;;0.40;0.40;;;;;;;;;;4994296;28;20174;-63
2021/11/15 02:10:00;;;;;;;0.50;0.50;;;;;;;;;;4993800;28;20225;-63
2021/11/15 02:12:26;;;;;;;0.40;0.40;;;;;;;;;;4993874;28;20234;-63
2021/11/15 02:14:53;;;;;;;0.40;0.40;;;;;;;;;;4993920;28;20418;-63
2021/11/15 02:17:19;;;;;;;0.40;0.40;;;;;;;;;;4993962;28;20179;-63
2021/11/15 02:19:45;;;;;;;0.40;0.40;;;;;;;;;;4994036;28;20201;-63
2021/11/15 02:22:11;;;;;;;0.40;0.40;;;;;;;;;;4993647;28;20436;-63
2021/11/15 02:24:37;;;;;;;0.40;0.40;;;;;;;;;;4993753;28;20213;-63
2021/11/15 02:27:04;;;;;;;0.50;0.50;;;;;;;;;;4993468;28;20174;-63
2021/11/15 02:29:30;;;;;;;0.40;0.40;;;;;;;;;;4993742;28;20424;-63
2021/11/15 02:31:56;;;;;;;0.40;0.40;;;;;;;;;;4992815;28;20281;-63
2021/11/15 02:34:22;;;;;;;0.50;0.50;;;;;;;;;;4992419;28;20418;-64
2021/11/15 02:36:48;;;;;;;0.50;0.50;;;;;;;;;;4993287;28;20425;-64
2021/11/15 02:39:14;;;;;;;0.50;0.50;;;;;;;;;;4993352;28;20302;-63
2021/11/15 02:41:41;;;;;;;0.40;0.40;;;;;;;;;;4993204;28;20190;-63
2021/11/15 02:44:08;;;;;;;0.40;0.40;;;;;;;;;;4993111;28;20283;-64
2021/11/15 02:46:35;;;;;;;0.50;0.50;;;;;;;;;;4993167;28;20261;-64
2021/11/15 02:49:01;;;;;;;0.40;0.40;;;;;;;;;;4992758;28;20186;-64
2021/11/15 02:51:27;;;;;;;0.40;0.40;;;;;;;;;;4992558;28;20210;-63
2021/11/15 02:53:53;;;;;;;0.40;0.40;;;;;;;;;;4993377;28;20268;-63
2021/11/15 02:56:19;;;;;;;0.40;0.40;;;;;;;;;;4992464;28;20634;-63
2021/11/15 02:58:46;;;;;;;0.40;0.40;;;;;;;;;;4993187;28;20425;-64
2021/11/15 03:01:13;;;;;;;0.40;0.40;;;;;;;;;;4992500;28;20808;-64
2021/11/15 03:03:39;;;;;;;0.40;0.40;;;;;;;;;;4993098;28;20585;-64
2021/11/15 03:06:06;;;;;;;0.40;0.40;;;;;;;;;;4993044;28;20185;-63
2021/11/15 03:08:32;;;;;;;0.50;0.50;;;;;;;;;;4993078;28;20179;-64
2021/11/15 03:10:59;;;;;;;0.40;0.40;;;;;;;;;;4991566;28;20198;-63
2021/11/15 03:13:28;;;;;;;0.40;0.40;;;;;;;;;;4992984;28;20519;-63
2021/11/15 03:15:54;;;;;;;0.50;0.50;;;;;;;;;;4992965;28;20189;-63
2021/11/15 03:18:28;;;;;;;0.40;0.40;;;;;;;;;;4992828;28;20182;-64
2021/11/15 03:20:56;;;;;;;0.40;0.40;;;;;;;;;;4991873;28;20249;-63
2021/11/15 03:23:23;;;;;;;0.40;0.40;;;;;;;;;;4991028;28;20202;-63
2021/11/15 03:25:50;;;;;;;0.40;0.40;;;;;;;;;;4992337;28;20178;-64
2021/11/15 03:28:17;;;;;;;0.40;0.40;;;;;;;;;;4992536;28;20178;-63
2021/11/15 03:30:43;;;;;;;0.40;0.40;;;;;;;;;;4992056;28;20233;-63
2021/11/15 03:33:10;;;;;;;0.40;0.40;;;;;;;;;;4992141;28;20629;-63
2021/11/15 03:35:38;;;;;;;0.40;0.40;;;;;;;;;;4991062;28;20710;-63
2021/11/15 03:38:04;;;;;;;0.50;0.50;;;;;;;;;;4992022;28;20282;-63
2021/11/15 03:40:30;;;;;;;0.50;0.50;;;;;;;;;;4992324;28;20327;-63
2021/11/15 03:42:58;;;;;;;0.50;0.50;;;;;;;;;;4992245;28;20221;-63
2021/11/15 03:45:25;;;;;;;0.40;0.40;;;;;;;;;;4992550;28;20277;-63
2021/11/15 03:47:51;;;;;;;0.40;0.40;;;;;;;;;;4992471;28;20182;-64
2021/11/15 03:50:17;;;;;;;0.40;0.40;;;;;;;;;;4991460;28;20550;-64
2021/11/15 03:52:44;;;;;;;0.40;0.40;;;;;;;;;;4991877;28;20206;-63
2021/11/15 03:55:11;;;;;;;0.50;0.50;;;;;;;;;;4992106;28;20527;-63
2021/11/15 03:57:38;;;;;;;0.40;0.40;;;;;;;;;;4991500;28;20179;-63
2021/11/15 04:00:06;;;;;;;0.40;0.40;;;;;;;;;;4991921;28;20181;-63
2021/11/15 04:02:33;;;;;;;0.40;0.40;;;;;;;;;;4992048;28;20183;-63
2021/11/15 04:05:03;;;;;;;0.40;0.40;;;;;;;;;;4992135;28;20204;-63
2021/11/15 04:07:39;;;;;;;0.50;0.50;;;;;;;;;;4991009;28;20580;-63
2021/11/15 04:10:11;;;;;;;0.50;0.50;;;;;;;;;;4991642;28;20178;-64
2021/11/15 04:12:37;;;;;;;0.40;0.40;;;;;;;;;;4991623;28;20691;-63
2021/11/15 04:15:04;;;;;;;0.40;0.40;;;;;;;;;;4991570;28;20194;-63
2021/11/15 04:17:30;;;;;;;0.43;0.43;;;;;;;;;;4991734;28;20192;-63
2021/11/15 04:19:56;;;;;;;0.40;0.40;;;;;;;;;;4992024;28;20183;-63
2021/11/15 04:22:22;;;;;;;0.40;0.40;;;;;;;;;;4991465;28;20278;-63
2021/11/15 04:24:48;;;;;;;0.40;0.40;;;;;;;;;;4991996;28;20220;-63
2021/11/15 04:27:15;;;;;;;0.40;0.40;;;;;;;;;;4991917;28;20174;-63
2021/11/15 04:29:41;;;;;;;0.40;0.40;;;;;;;;;;4991930;28;20170;-63
2021/11/15 04:32:08;;;;;;;0.40;0.40;;;;;;;;;;4991684;28;20561;-63
2021/11/15 04:34:35;;;;;;;0.50;0.50;;;;;;;;;;4992056;28;20313;-64
2021/11/15 04:37:01;;;;;;;0.50;0.50;;;;;;;;;;4991994;28;20223;-63
2021/11/15 04:39:28;;;;;;;0.50;0.50;;;;;;;;;;4990318;28;20273;-63
2021/11/15 04:41:54;;;;;;;0.40;0.40;;;;;;;;;;4991541;28;20282;-63
2021/11/15 04:44:20;;;;;;;0.50;0.50;;;;;;;;;;4991605;28;20205;-64
2021/11/15 04:46:45;;;;;;;0.40;0.40;;;;;;;;;;4991809;28;20634;-63
2021/11/15 04:49:12;;;;;;;0.50;0.50;;;;;;;;;;4991844;28;20463;-63
2021/11/15 04:51:38;;;;;;;0.50;0.50;;;;;;;;;;4990724;28;20848;-63
2021/11/15 04:54:04;;;;;;;0.40;0.40;;;;;;;;;;4991320;28;20202;-64
2021/11/15 04:56:30;;;;;;;0.40;0.40;;;;;;;;;;4991317;28;20286;-65
2021/11/15 04:58:56;;;;;;;0.40;0.40;;;;;;;;;;4991386;28;20198;-63
2021/11/15 05:01:22;;;;;;;0.50;0.50;;;;;;;;;;4991374;28;20765;-65
2021/11/15 05:03:48;;;;;;;0.40;0.40;;;;;;;;;;4991680;28;20297;-63
2021/11/15 05:06:14;;;;;;;0.40;0.40;;;;;;;;;;4991773;28;20406;-63
2021/11/15 05:08:40;;;;;;;0.50;0.50;;;;;;;;;;4991202;28;20182;-63
2021/11/15 05:11:06;;;;;;;0.50;0.50;;;;;;;;;;4990847;28;20681;-63
2021/11/15 05:13:32;;;;;;;0.40;0.40;;;;;;;;;;4991588;28;20190;-63
2021/11/15 05:15:58;;;;;;;0.40;0.40;;;;;;;;;;4991209;28;20436;-63
2021/11/15 05:18:24;;;;;;;0.40;0.40;;;;;;;;;;4992428;28;20429;-63
2021/11/15 05:20:50;;;;;;;0.43;0.43;;;;;;;;;;4994026;28;20421;-65
2021/11/15 05:23:16;;;;;;;0.40;0.40;;;;;;;;;;4994902;28;20232;-63
2021/11/15 05:25:42;;;;;;;0.40;0.40;;;;;;;;;;4994449;28;20178;-63
2021/11/15 05:28:08;;;;;;;0.40;0.40;;;;;;;;;;4994932;28;20417;-63
2021/11/15 05:30:34;;;;;;;0.50;0.50;;;;;;;;;;4994840;28;20174;-63
2021/11/15 05:33:00;;;;;;;0.40;0.40;;;;;;;;;;4994875;28;20281;-63
2021/11/15 05:35:27;;;;;;;0.40;0.40;;;;;;;;;;4994951;28;20867;-63
2021/11/15 05:37:54;;;;;;;0.50;0.50;;;;;;;;;;4982845;28;20418;-63
2021/11/15 05:40:20;;;;;;;0.40;0.40;;;;;;;;;;4975061;28;20727;-63
2021/11/15 05:42:46;;;;;;;0.50;0.50;;;;;;;;;;4975105;28;20617;-63
2021/11/15 05:45:13;;;;;;;0.43;0.43;;;;;;;;;;4992106;28;20649;-63
2021/11/15 05:47:42;;;;;;;0.40;0.40;;;;;;;;;;4994558;28;20642;-65
2021/11/15 05:50:08;;;;;;;0.40;0.40;;;;;;;;;;4994392;28;20170;-63
2021/11/15 05:52:39;;;;;;;0.40;0.40;;;;;;;;;;5054079;22;20641;-66
2021/11/15 05:55:06;;;;;;;0.40;0.40;;;;;;;;;;5053711;28;20190;-66
2021/11/15 05:57:32;;;;;;;0.40;0.40;;;;;;;;;;5053473;28;20176;-67
2021/11/15 05:59:58;;;;;;;0.40;0.40;;;;;;;;;;5053612;28;20176;-66
2021/11/15 06:02:24;;;;;;;0.40;0.40;;;;;;;;;;5053306;28;20797;-67
2021/11/15 06:04:50;;;;;;;0.50;0.50;;;;;;;;;;5053443;28;20461;-64
2021/11/15 06:07:15;;;;;;;0.40;0.40;;;;;;;;;;5053531;28;20422;-64
2021/11/15 06:09:42;;;;;;;0.40;0.40;;;;;;;;;;5053434;28;20496;-66
2021/11/15 06:12:08;;;;;;;0.40;0.40;;;;;;;;;;5053214;28;20480;-65
2021/11/15 06:14:34;;;;;;;0.40;0.40;;;;;;;;;;5053382;28;20191;-65
2021/11/15 06:17:00;;;;;;;0.40;0.40;;;;;;;;;;5053357;28;20172;-64
2021/11/15 06:19:26;;;;;;;0.40;0.40;;;;;;;;;;5053364;28;20218;-66
2021/11/15 06:21:52;;;;;;;0.40;0.40;;;;;;;;;;5052932;28;20427;-66
2021/11/15 06:24:18;;;;;;;0.40;0.40;;;;;;;;;;5053093;28;20285;-66
2021/11/15 06:26:44;;;;;;;0.40;0.40;;;;;;;;;;5052247;28;20426;-66
2021/11/15 06:29:10;;;;;;;0.40;0.40;;;;;;;;;;5052279;28;20418;-64
2021/11/15 06:31:37;;;;;;;0.40;0.40;;;;;;;;;;5052004;28;20512;-66
2021/11/15 06:34:03;;;;;;;0.40;0.40;;;;;;;;;;5052800;28;20923;-66
2021/11/15 06:36:29;;;;;;;0.40;0.40;;;;;;;;;;5052375;28;20251;-66
2021/11/15 06:38:57;;;;;;;0.40;0.40;;;;;;;;;;5052980;28;20172;-65
2021/11/15 06:41:23;;;;;;;0.40;0.40;;;;;;;;;;5051772;28;20851;-65
2021/11/15 06:43:49;;;;;;;0.40;0.40;;;;;;;;;;5045814;28;20287;-65
2021/11/15 06:46:15;;;;;;;0.50;0.50;;;;;;;;;;5034517;28;20446;-65
2021/11/15 06:48:41;;;;;;;0.40;0.40;;;;;;;;;;5032894;28;20203;-66
2021/11/15 06:51:11;;;;;;;0.40;0.40;;;;;;;;;;5044090;28;20418;-66
2021/11/15 06:53:38;;;;;;;0.50;0.50;;;;;;;;;;5052541;28;20191;-65
2021/11/15 06:56:04;;;;;;;0.40;0.40;;;;;;;;;;5052179;28;20195;-66
2021/11/15 06:58:31;;;;;;;0.40;0.40;;;;;;;;;;5052007;28;20183;-66
2021/11/15 07:00:57;;;;;;;0.40;0.40;;;;;;;;;;5051879;28;20943;-67
2021/11/15 07:03:23;;;;;;;0.40;0.40;;;;;;;;;;5051254;28;20286;-65
2021/11/15 07:05:49;;;;;;;0.50;0.50;;;;;;;;;;5051327;28;20423;-65
2021/11/15 07:08:15;;;;;;;0.50;0.50;;;;;;;;;;5052802;28;20422;-64
2021/11/15 07:10:42;;;;;;;0.50;0.50;;;;;;;;;;5053301;28;20434;-65
2021/11/15 07:13:08;;;;;;;0.40;0.40;;;;;;;;;;5050575;28;20270;-66
2021/11/15 07:15:34;;;;;;;0.40;0.40;;;;;;;;;;5050716;28;20682;-66
2021/11/15 07:18:00;;;;;;;0.40;0.40;;;;;;;;;;5051638;28;20909;-65
2021/11/15 07:20:26;;;;;;;0.50;0.50;;;;;;;;;;5051918;28;20406;-65
2021/11/15 07:22:52;;;;;;;0.50;0.50;;;;;;;;;;5051841;28;20249;-65
2021/11/15 07:25:20;;;;;;;0.47;0.47;;;;;;;;;;5051916;28;20591;-66
2021/11/15 07:27:47;;;;;;;0.40;0.40;;;;;;;;;;5051917;28;20406;-66
2021/11/15 07:30:12;;;;;;;0.50;0.50;;;;;;;;;;5051788;28;20176;-66
2021/11/15 07:32:39;;;;;;;0.50;0.50;;;;;;;;;;5052090;28;20188;-67
2021/11/15 07:35:05;;;;;;;0.40;0.40;;;;;;;;;;5051890;28;20415;-67
2021/11/15 07:37:31;;;;;;;0.40;0.40;;;;;;;;;;5052293;28;20183;-66
2021/11/15 07:39:57;;;;;;;0.50;0.50;;;;;;;;;;5051896;28;20468;-67
2021/11/15 07:42:23;;;;;;;0.40;0.40;;;;;;;;;;5051472;28;20262;-67
2021/11/15 07:44:49;;;;;;;0.40;0.40;;;;;;;;;;5051621;28;20208;-65
2021/11/15 07:47:15;;;;;;;0.40;0.40;;;;;;;;;;5050677;28;20476;-66
2021/11/15 07:49:42;;;;;;;0.50;0.50;;;;;;;;;;5052233;28;20604;-64
2021/11/15 07:52:08;;;;;;;0.50;0.50;;;;;;;;;;5050117;28;20239;-66
2021/11/15 07:54:34;;;;;;;0.50;0.50;;;;;;;;;;5051753;28;20230;-67
2021/11/15 07:57:01;;;;;;;0.40;0.40;;;;;;;;;;5049820;28;20263;-66
2021/11/15 07:59:27;;;;;;;0.50;0.50;;;;;;;;;;5050182;28;20176;-66
2021/11/15 08:01:53;;;;;;;0.40;0.40;;;;;;;;;;5049896;28;20571;-66
2021/11/15 08:04:19;;;;;;;0.40;0.40;;;;;;;;;;5050898;28;20204;-66
2021/11/15 08:06:45;;;;;;;0.40;0.40;;;;;;;;;;5051243;28;20575;-66
2021/11/15 08:09:11;;;;;;;0.45;0.45;;;;;;;;;;5051501;28;20520;-66
2021/11/15 08:11:38;;;;;;;0.40;0.40;;;;;;;;;;5050915;28;20207;-66
2021/11/15 08:14:04;;;;;;;0.50;0.50;;;;;;;;;;5050476;28;20178;-66
2021/11/15 08:16:30;;;;;;;0.40;0.40;;;;;;;;;;5051187;28;20179;-66
2021/11/15 08:18:57;;;;;;;0.40;0.40;;;;;;;;;;5051283;28;20654;-66
2021/11/15 08:21:24;;;;;;;0.40;0.40;;;;;;;;;;5050820;28;20229;-67
2021/11/15 08:23:50;;;;;;;0.40;0.40;;;;;;;;;;5051007;28;20206;-66
2021/11/15 08:26:22;;;;;;;0.40;0.40;;;;;;;;;;5051230;28;20176;-66
2021/11/15 08:28:48;;;;;;;0.40;0.40;;;;;;;;;;5051153;28;20241;-67
2021/11/15 08:31:14;;;;;;;0.40;0.40;;;;;;;;;;5051098;28;20175;-67
2021/11/15 08:33:40;;;;;;;0.40;0.40;;;;;;;;;;5051103;28;20195;-66
2021/11/15 08:36:06;;;;;;;0.40;0.40;;;;;;;;;;5051027;28;20718;-66
2021/11/15 08:38:32;;;;;;;0.40;0.40;;;;;;;;;;5051090;28;20202;-65
2021/11/15 08:40:58;;;;;;;0.40;0.40;;;;;;;;;;5051018;28;20208;-65
2021/11/15 08:43:24;;;;;;;0.40;0.40;;;;;;;;;;5050923;28;20465;-66
2021/11/15 08:45:51;;;;;;;0.47;0.47;;;;;;;;;;5050992;28;20494;-66
2021/11/15 08:48:17;;;;;;;0.40;0.40;;;;;;;;;;5050583;28;20248;-66
2021/11/15 08:50:43;;;;;;;0.40;0.40;;;;;;;;;;5050744;28;20665;-66
2021/11/15 08:53:09;;;;;;;0.40;0.40;;;;;;;;;;5051405;28;20641;-67
2021/11/15 08:55:36;;;;;;;0.40;0.40;;;;;;;;;;5054534;28;20172;-66
2021/11/15 08:58:02;;;;;;;0.40;0.40;;;;;;;;;;5054847;28;20635;-65
2021/11/15 09:00:28;;;;;;;0.40;0.40;;;;;;;;;;5054588;28;20193;-66
2021/11/15 09:02:55;;;;;;;0.40;0.40;;;;;;;;;;5054392;28;20191;-66
2021/11/15 09:05:21;;;;;;;0.40;0.40;;;;;;;;;;5054582;28;20441;-67
2021/11/15 09:07:48;;;;;;;0.40;0.40;;;;;;;;;;5054687;28;20188;-67
2021/11/15 09:10:14;;;;;;;0.40;0.40;;;;;;;;;;5054530;28;20258;-65
2021/11/15 09:12:41;;;;;;;0.40;0.40;;;;;;;;;;5054419;28;20191;-67
2021/11/15 09:15:08;;;;;;;0.40;0.40;;;;;;;;;;5054497;28;20194;-67
2021/11/15 09:17:34;;;;;;;0.40;0.40;;;;;;;;;;5054219;28;20545;-66
2021/11/15 09:20:02;;;;;;;0.40;0.40;;;;;;;;;;5053029;28;20260;-66
2021/11/15 09:22:28;;;;;;;0.40;0.40;;;;;;;;;;5054244;28;20702;-66
2021/11/15 09:24:54;;;;;;;0.40;0.40;;;;;;;;;;5054116;28;20265;-66
2021/11/15 09:27:20;;;;;;;0.40;0.40;;;;;;;;;;5054296;28;20517;-65
2021/11/15 09:29:47;;;;;;;0.40;0.40;;;;;;;;;;5054251;28;20410;-67
2021/11/15 09:32:14;;;;;;;0.40;0.40;;;;;;;;;;5053821;28;20516;-66
2021/11/15 09:34:41;;;;;;;0.40;0.40;;;;;;;;;;5054092;28;20539;-66
2021/11/15 09:37:11;;;;;;;0.40;0.40;;;;;;;;;;5054152;28;20180;-65
2021/11/15 09:39:37;;;;;;;0.40;0.40;;;;;;;;;;5053914;28;20255;-67
2021/11/15 09:42:04;;;;;;;0.40;0.40;;;;;;;;;;5053620;28;20196;-66
2021/11/15 09:44:30;;;;;;;0.40;0.40;;;;;;;;;;5053771;28;20204;-67
2021/11/15 09:46:56;;;;;;;0.50;0.50;;;;;;;;;;5051629;28;20199;-62
2021/11/15 09:49:22;;;;;;;0.40;0.40;;;;;;;;;;5051834;28;20180;-65
2021/11/15 09:51:48;;;;;;;0.40;0.40;;;;;;;;;;5053281;28;20203;-66
2021/11/15 09:54:16;;;;;;;0.50;0.50;;;;;;;;;;5053944;28;20966;-66
2021/11/15 09:56:42;;;;;;;0.40;0.40;;;;;;;;;;5053369;28;20178;-65
2021/11/15 09:59:11;;;;;;;0.40;0.40;;;;;;;;;;5053481;28;20256;-66
2021/11/15 10:01:38;;;;;;;0.40;0.40;;;;;;;;;;5053349;28;20196;-66
2021/11/15 10:04:04;;;;;;;0.40;0.40;;;;;;;;;;5053417;28;20709;-66
2021/11/15 10:06:30;;;;;;;0.40;0.40;;;;;;;;;;5052918;28;20172;-67
2021/11/15 10:08:57;;;;;;;0.40;0.40;;;;;;;;;;5053612;28;20164;-67
2021/11/15 10:11:24;;;;;;;0.40;0.40;;;;;;;;;;5053238;28;20172;-67
2021/11/15 10:13:51;;;;;;;0.50;0.50;;;;;;;;;;5053354;28;20647;-66
2021/11/15 10:16:19;;;;;;;0.40;0.40;;;;;;;;;;5053928;28;20510;-66
2021/11/15 10:18:45;;;;;;;0.40;0.40;;;;;;;;;;5053351;28;20214;-66
2021/11/15 10:21:11;;;;;;;0.40;0.40;;;;;;;;;;5053495;28;20550;-66
2021/11/15 10:23:45;;;;;;;0.40;0.40;;;;;;;;;;5053086;28;20230;-66
2021/11/15 10:26:15;;;;;;;0.40;0.40;;;;;;;;;;5052974;28;20176;-64
2021/11/15 10:28:42;;;;;;;0.40;0.40;;;;;;;;;;5053200;28;20168;-66
2021/11/15 10:31:24;;;;;;;0.40;0.40;;;;;;;;;;5052623;28;20590;-65
2021/11/15 10:33:50;;;;;;;0.40;0.40;;;;;;;;;;5051651;28;20171;-66
2021/11/15 10:36:16;;;;;;;0.40;0.40;;;;;;;;;;5053198;28;20657;-66
2021/11/15 10:38:44;;;;;;;0.40;0.40;;;;;;;;;;5052992;28;20184;-66
2021/11/15 10:41:21;;;;;;;0.40;0.40;;;;;;;;;;5052935;28;20442;-64
2021/11/15 10:43:47;;;;;;;0.50;0.50;;;;;;;;;;5053037;28;20605;-67
2021/11/15 10:46:49;;;;;;;0.40;0.40;;;;;;;;;;5052887;28;20175;-66
2021/11/15 10:49:18;;;;;;;0.40;0.40;;;;;;;;;;5010681;28;20204;-67
2021/11/15 10:51:48;;;;;;;0.50;0.50;;;;;;;;;;5044712;28;20224;-67
2021/11/15 10:54:28;;;;;;;0.40;0.40;;;;;;;;;;5052632;28;20171;-66
2021/11/15 10:56:56;;;;;;;0.40;0.40;;;;;;;;;;5052602;28;20262;-66
2021/11/15 10:59:22;;;;;;;0.40;0.40;;;;;;;;;;5052503;28;20175;-66
2021/11/15 11:01:48;;;;;;;0.50;0.50;;;;;;;;;;5052258;28;20195;-66
2021/11/15 11:04:22;;;;;;;0.50;0.50;;;;;;;;;;5052419;28;20582;-65
2021/11/15 11:07:14;;;;;;;0.40;0.40;;;;;;;;;;5052296;28;20183;-66
2021/11/15 11:09:41;;;;;;;0.40;0.40;;;;;;;;;;5050582;28;20196;-66
2021/11/15 11:12:14;;;;;;;0.40;0.40;;;;;;;;;;5052455;28;20224;-67
2021/11/15 11:14:41;;;;;;;0.40;0.40;;;;;;;;;;5052191;28;20637;-66
2021/11/15 11:17:07;;;;;;;0.40;0.40;;;;;;;;;;5051859;28;20195;-66
2021/11/15 11:19:37;;;;;;;0.40;0.40;;;;;;;;;;5052183;28;20171;-64
2021/11/15 11:27:31;;;;;;;0.40;0.40;;;;;;;;;;5051979;28;20168;-66
2021/11/15 11:29:58;;;;;;;0.40;0.40;;;;;;;;;;5051999;28;20255;-66
2021/11/15 11:32:25;;;;;;;0.40;0.40;;;;;;;;;;5051664;28;20203;-66
2021/11/15 11:34:52;;;;;;;0.40;0.40;;;;;;;;;;5051653;28;20207;-67
2021/11/15 11:37:20;;;;;;;0.40;0.40;;;;;;;;;;5049859;28;20199;-66
2021/11/15 11:39:47;;;;;;;0.40;0.40;;;;;;;;;;5051239;28;20206;-68
2021/11/15 11:42:15;;;;;;;0.50;0.50;;;;;;;;;;5051582;28;20606;-67
2021/11/15 11:44:42;;;;;;;0.47;0.47;;;;;;;;;;5051542;28;20207;-66
2021/11/15 11:47:09;;;;;;;0.40;0.40;;;;;;;;;;5051673;28;20176;-67
2021/11/15 11:49:37;;;;;;;0.40;0.40;;;;;;;;;;5051276;28;20222;-66
2021/11/15 11:52:05;;;;;;;0.40;0.40;;;;;;;;;;5066337;22;20228;-64
2021/11/15 11:54:33;;;;;;;0.40;0.40;;;;;;;;;;5031463;28;20218;-65
2021/11/15 11:57:02;;;;;;;0.50;0.50;;;;;;;;;;5031542;28;20177;-65
2021/11/15 11:59:28;;;;;;;0.40;0.40;;;;;;;;;;5031712;28;20580;-65
2021/11/15 12:02:03;;;;;;;0.40;0.40;;;;;;;;;;5030953;28;20204;-64
2021/11/15 12:04:30;;;;;;;0.40;0.40;;;;;;;;;;5031113;28;20215;-64
2021/11/15 12:06:57;;;;;;;0.40;0.40;;;;;;;;;;5031556;28;20536;-65
2021/11/15 12:09:24;;;;;;;0.40;0.40;;;;;;;;;;5031528;28;20234;-65
2021/11/15 12:12:00;;;;;;;0.40;0.40;;;;;;;;;;5030682;28;20211;-64
2021/11/15 12:14:30;;;;;;;0.40;0.40;;;;;;;;;;5031433;28;20261;-65
2021/11/15 12:17:00;;;;;;;0.40;0.40;;;;;;;;;;5031149;28;20603;-65
2021/11/15 12:19:30;;;;;;;0.40;0.40;;;;;;;;;;5031410;28;20177;-64
2021/11/15 12:22:08;;;;;;;0.40;0.40;;;;;;;;;;5031105;28;20703;-65
2021/11/15 12:24:34;;;;;;;0.40;0.40;;;;;;;;;;5031112;28;20196;-65
2021/11/15 12:27:00;;;;;;;0.40;0.40;;;;;;;;;;5031345;28;20606;-65
2021/11/15 12:29:28;;;;;;;0.40;0.40;;;;;;;;;;5032314;28;20564;-65
2021/11/15 12:31:58;;;;;;;0.40;0.40;;;;;;;;;;5035055;28;20215;-65
2021/11/15 12:34:26;;;;;;;0.40;0.40;;;;;;;;;;5034898;28;20584;-64
2021/11/15 12:36:54;;;;;;;0.40;0.40;;;;;;;;;;5035255;28;20586;-65
2021/11/15 12:39:25;;;;;;;0.50;0.50;;;;;;;;;;5035337;28;20667;-65
2021/11/15 12:41:52;;;;;;;0.50;0.50;;;;;;;;;;5034500;28;20201;-65
2021/11/15 12:44:29;;;;;;;0.40;0.40;;;;;;;;;;5035097;28;20203;-65
2021/11/15 12:47:00;;;;;;;0.40;0.40;;;;;;;;;;5034801;28;20169;-66
2021/11/15 12:49:33;;;;;;;0.40;0.40;;;;;;;;;;5035822;28;20169;-64
2021/11/15 12:52:11;;;;;;;0.40;0.40;;;;;;;;;;5034696;28;20668;-64
2021/11/15 12:54:39;;;;;;;0.50;0.50;;;;;;;;;;5034629;28;20255;-64
2021/11/15 12:57:06;;;;;;;0.40;0.40;;;;;;;;;;5034419;28;20651;-64
2021/11/15 12:59:32;;;;;;;0.40;0.40;;;;;;;;;;5034864;28;20227;-64
2021/11/15 13:01:58;;;;;;;0.40;0.40;;;;;;;;;;5034416;28;20188;-65
2021/11/15 13:04:24;;;;;;;0.40;0.40;;;;;;;;;;5034756;28;20223;-65
2021/11/15 13:06:51;;;;;;;0.40;0.40;;;;;;;;;;5034151;28;20179;-64
2021/11/15 13:09:17;;;;;;;0.40;0.40;;;;;;;;;;5034337;28;20169;-65
2021/11/15 13:11:50;;;;;;;0.40;0.40;;;;;;;;;;5034534;28;20196;-65
2021/11/15 13:14:16;;;;;;;0.40;0.40;;;;;;;;;;5034664;28;20248;-64
2021/11/15 13:16:47;;;;;;;0.40;0.40;;;;;;;;;;5034462;28;20180;-64
2021/11/15 13:19:13;;;;;;;0.40;0.40;;;;;;;;;;5033672;28;20165;-64
2021/11/15 13:21:41;;;;;;;0.40;0.40;;;;;;;;;;5032602;28;20169;-64
2021/11/15 13:24:07;;;;;;;0.40;0.40;;;;;;;;;;5034082;28;20618;-64
2021/11/15 13:26:35;;;;;;;0.40;0.40;;;;;;;;;;5034479;28;20315;-64
2021/11/15 13:29:05;;;;;;;0.40;0.40;;;;;;;;;;5034228;28;20169;-64
2021/11/15 13:31:31;;;;;;;0.40;0.40;;;;;;;;;;5033527;28;20260;-63
2021/11/15 13:33:58;;;;;;;0.40;0.40;;;;;;;;;;5034065;28;20183;-63
2021/11/15 13:36:24;;;;;;;0.50;0.50;;;;;;;;;;5034072;28;20168;-64
2021/11/15 13:38:52;;;;;;;0.40;0.40;;;;;;;;;;5033907;28;20287;-63
2021/11/15 13:41:19;;;;;;;0.40;0.40;;;;;;;;;;5033065;28;20404;-63
2021/11/15 13:43:45;;;;;;;0.40;0.40;;;;;;;;;;5033798;28;20209;-64
2021/11/15 13:46:11;;;;;;;0.50;0.50;;;;;;;;;;5033967;28;20196;-64
2021/11/15 13:48:38;;;;;;;0.40;0.40;;;;;;;;;;5033873;28;20208;-63
2021/11/15 13:51:04;;;;;;;0.40;0.40;;;;;;;;;;5033742;28;20481;-64
2021/11/15 13:53:34;;;;;;;0.40;0.40;;;;;;;;;;5032814;28;20216;-63
2021/11/15 13:56:00;;;;;;;0.40;0.40;;;;;;;;;;5033784;28;20183;-63
2021/11/15 13:58:30;;;;;;;0.40;0.40;;;;;;;;;;5033530;28;20583;-64
2021/11/15 14:00:57;;;;;;;0.40;0.40;;;;;;;;;;5033238;28;20188;-64
2021/11/15 14:03:23;;;;;;;0.40;0.40;;;;;;;;;;5033534;28;20216;-63
2021/11/15 14:05:49;;;;;;;0.40;0.40;;;;;;;;;;5033624;28;20169;-63
2021/11/15 14:08:16;;;;;;;0.47;0.47;;;;;;;;;;5033746;28;20684;-64
2021/11/15 14:10:42;;;;;;;0.40;0.40;;;;;;;;;;5033247;28;20326;-64
2021/11/15 14:13:08;;;;;;;0.40;0.40;;;;;;;;;;5032975;28;20180;-63
2021/11/15 14:15:34;;;;;;;0.40;0.40;;;;;;;;;;5032870;28;20176;-64
2021/11/15 14:18:00;;;;;;;0.40;0.40;;;;;;;;;;5033235;28;20641;-64
2021/11/15 14:20:28;;;;;;;0.40;0.40;;;;;;;;;;5032989;28;20191;-64
2021/11/15 14:22:54;;;;;;;0.40;0.40;;;;;;;;;;5033346;28;20201;-65
2021/11/15 14:25:20;;;;;;;0.50;0.50;;;;;;;;;;5033084;28;20319;-64
2021/11/15 14:27:47;;;;;;;0.47;0.47;;;;;;;;;;5033078;28;20713;-64
2021/11/15 14:30:13;;;;;;;0.40;0.40;;;;;;;;;;5032713;28;20176;-64
2021/11/15 14:32:39;;;;;;;0.40;0.40;;;;;;;;;;5033069;28;20325;-64
2021/11/15 14:35:06;;;;;;;0.50;0.50;;;;;;;;;;5033070;28;20210;-64
2021/11/15 14:37:32;;;;;;;0.40;0.40;;;;;;;;;;5033131;28;20698;-64
2021/11/15 14:39:58;;;;;;;0.40;0.40;;;;;;;;;;5033049;28;20259;-64
2021/11/15 14:42:24;;;;;;;0.40;0.40;;;;;;;;;;5032801;28;20206;-64
2021/11/15 14:44:51;;;;;;;0.40;0.40;;;;;;;;;;5032704;28;20203;-64
2021/11/15 14:47:18;;;;;;;0.40;0.40;;;;;;;;;;5032707;28;20181;-64